sensor_id;sensor_type;location;lat;lon;timestamp;pressure;altitude;pressure_sealevel;temperature;humidity
20015;BME280;61787;42.022;23.078;2023-02-16T00:00:47;98149.94;;;1.05;95.61
20015;BME280;61787;42.022;23.078;2023-02-16T00:01:49;98156.34;;;1.09;94.55
20015;BME280;61787;42.022;23.078;2023-02-16T00:02:51;98155.88;;;1.12;93.07
20015;BME280;61787;42.022;23.078;2023-02-16T00:03:53;98154.75;;;1.08;90.45
20015;BME280;61787;42.022;23.078;2023-02-16T00:04:55;98147.97;;;1.12;89.28
20015;BME280;61787;42.022;23.078;2023-02-16T00:05:57;98157.53;;;1.18;88.02
20015;BME280;61787;42.022;23.078;2023-02-16T00:06:58;98159.25;;;1.24;87.95
20015;BME280;61787;42.022;23.078;2023-02-16T00:08:00;98154.03;;;1.29;86.68
20015;BME280;61787;42.022;23.078;2023-02-16T00:09:02;98150.94;;;1.33;85.80
20015;BME280;61787;42.022;23.078;2023-02-16T00:10:04;98158.13;;;1.37;85.15
20015;BME280;61787;42.022;23.078;2023-02-16T00:11:12;98151.56;;;1.40;84.30
20015;BME280;61787;42.022;23.078;2023-02-16T00:12:34;98155.88;;;1.46;83.92
20015;BME280;61787;42.022;23.078;2023-02-16T00:13:55;98149.31;;;1.48;83.28
20015;BME280;61787;42.022;23.078;2023-02-16T00:14:57;98153.31;;;1.51;83.37
20015;BME280;61787;42.022;23.078;2023-02-16T00:15:58;98154.91;;;1.52;82.66
20015;BME280;61787;42.022;23.078;2023-02-16T00:17:00;98147.56;;;1.54;82.51
20015;BME280;61787;42.022;23.078;2023-02-16T00:18:02;98149.13;;;1.55;81.75
20015;BME280;61787;42.022;23.078;2023-02-16T00:19:23;98147.06;;;1.57;81.55
20015;BME280;61787;42.022;23.078;2023-02-16T00:20:25;98154.50;;;1.60;81.72
20015;BME280;61787;42.022;23.078;2023-02-16T00:21:27;98149.78;;;1.62;81.18
20015;BME280;61787;42.022;23.078;2023-02-16T00:22:28;98148.75;;;1.63;80.58
20015;BME280;61787;42.022;23.078;2023-02-16T00:23:30;98147.72;;;1.64;80.48
20015;BME280;61787;42.022;23.078;2023-02-16T00:24:31;98145.06;;;1.64;80.43
20015;BME280;61787;42.022;23.078;2023-02-16T00:25:33;98144.00;;;1.65;80.54
20015;BME280;61787;42.022;23.078;2023-02-16T00:26:35;98140.91;;;1.68;79.95
20015;BME280;61787;42.022;23.078;2023-02-16T00:27:37;98155.22;;;1.72;79.75
20015;BME280;61787;42.022;23.078;2023-02-16T00:28:38;98154.72;;;1.75;79.28
20015;BME280;61787;42.022;23.078;2023-02-16T00:29:40;98149.78;;;1.79;79.16
20015;BME280;61787;42.022;23.078;2023-02-16T00:30:44;98148.97;;;1.78;78.62
20015;BME280;61787;42.022;23.078;2023-02-16T00:31:46;98149.50;;;1.80;78.20
20015;BME280;61787;42.022;23.078;2023-02-16T00:32:48;98152.72;;;1.82;78.69
20015;BME280;61787;42.022;23.078;2023-02-16T00:33:50;98147.66;;;1.81;78.67
20015;BME280;61787;42.022;23.078;2023-02-16T00:34:52;98153.75;;;1.81;78.58
20015;BME280;61787;42.022;23.078;2023-02-16T00:35:53;98151.13;;;1.81;77.96
20015;BME280;61787;42.022;23.078;2023-02-16T00:36:56;98149.78;;;1.79;78.06
20015;BME280;61787;42.022;23.078;2023-02-16T00:37:58;98152.66;;;1.77;78.02
20015;BME280;61787;42.022;23.078;2023-02-16T00:39:00;98156.34;;;1.76;77.85
20015;BME280;61787;42.022;23.078;2023-02-16T00:40:01;98150.00;;;1.77;78.35
20015;BME280;61787;42.022;23.078;2023-02-16T00:41:04;98151.59;;;1.78;77.88
20015;BME280;61787;42.022;23.078;2023-02-16T00:42:12;98155.06;;;1.79;77.97
20015;BME280;61787;42.022;23.078;2023-02-16T00:43:27;98153.75;;;1.81;77.34
20015;BME280;61787;42.022;23.078;2023-02-16T00:44:35;98152.94;;;1.81;77.22
20015;BME280;61787;42.022;23.078;2023-02-16T00:45:37;98152.16;;;1.80;77.09
20015;BME280;61787;42.022;23.078;2023-02-16T00:46:38;98151.59;;;1.78;77.19
20015;BME280;61787;42.022;23.078;2023-02-16T00:47:42;98151.78;;;1.71;77.54
20015;BME280;61787;42.022;23.078;2023-02-16T00:48:47;98153.63;;;1.71;77.19
20015;BME280;61787;42.022;23.078;2023-02-16T00:49:50;98146.41;;;1.66;77.74
20015;BME280;61787;42.022;23.078;2023-02-16T00:50:52;98144.50;;;1.62;77.97
20015;BME280;61787;42.022;23.078;2023-02-16T00:51:54;98143.94;;;1.60;78.69
20015;BME280;61787;42.022;23.078;2023-02-16T00:52:56;98155.16;;;1.50;79.16
20015;BME280;61787;42.022;23.078;2023-02-16T00:53:58;98146.91;;;1.47;79.17
20015;BME280;61787;42.022;23.078;2023-02-16T00:55:03;98152.66;;;1.44;79.65
20015;BME280;61787;42.022;23.078;2023-02-16T00:56:08;98152.19;;;1.47;80.11
20015;BME280;61787;42.022;23.078;2023-02-16T00:57:16;98157.50;;;1.47;79.73
20015;BME280;61787;42.022;23.078;2023-02-16T00:58:28;98157.72;;;1.45;79.26
20015;BME280;61787;42.022;23.078;2023-02-16T00:59:31;98149.47;;;1.42;79.41
20015;BME280;61787;42.022;23.078;2023-02-16T01:00:36;98148.44;;;1.43;79.75
20015;BME280;61787;42.022;23.078;2023-02-16T01:01:38;98149.56;;;1.47;79.56
20015;BME280;61787;42.022;23.078;2023-02-16T01:02:41;98151.09;;;1.43;79.41
20015;BME280;61787;42.022;23.078;2023-02-16T01:03:43;98146.28;;;1.40;79.36
20015;BME280;61787;42.022;23.078;2023-02-16T01:04:45;98147.22;;;1.34;79.54
20015;BME280;61787;42.022;23.078;2023-02-16T01:05:46;98152.50;;;1.34;79.76
20015;BME280;61787;42.022;23.078;2023-02-16T01:06:48;98141.47;;;1.37;79.41
20015;BME280;61787;42.022;23.078;2023-02-16T01:08:11;98144.19;;;1.42;79.75
20015;BME280;61787;42.022;23.078;2023-02-16T01:09:31;98141.41;;;1.48;78.75
20015;BME280;61787;42.022;23.078;2023-02-16T01:10:52;98143.84;;;1.55;78.52
20015;BME280;61787;42.022;23.078;2023-02-16T01:12:14;98137.28;;;1.57;77.42
20015;BME280;61787;42.022;23.078;2023-02-16T01:13:17;98144.44;;;1.57;77.21
20015;BME280;61787;42.022;23.078;2023-02-16T01:14:19;98145.22;;;1.57;77.63
20015;BME280;61787;42.022;23.078;2023-02-16T01:15:23;98136.50;;;1.57;77.38
20015;BME280;61787;42.022;23.078;2023-02-16T01:16:32;98141.22;;;1.55;77.56
20015;BME280;61787;42.022;23.078;2023-02-16T01:17:35;98138.56;;;1.55;77.64
20015;BME280;61787;42.022;23.078;2023-02-16T01:18:37;98140.66;;;1.53;77.42
20015;BME280;61787;42.022;23.078;2023-02-16T01:19:38;98135.38;;;1.53;77.64
20015;BME280;61787;42.022;23.078;2023-02-16T01:20:40;98129.53;;;1.51;77.32
20015;BME280;61787;42.022;23.078;2023-02-16T01:21:42;98132.97;;;1.51;77.57
20015;BME280;61787;42.022;23.078;2023-02-16T01:22:43;98130.56;;;1.50;77.34
20015;BME280;61787;42.022;23.078;2023-02-16T01:23:45;98131.06;;;1.47;77.63
20015;BME280;61787;42.022;23.078;2023-02-16T01:24:46;98139.38;;;1.39;78.06
20015;BME280;61787;42.022;23.078;2023-02-16T01:25:48;98129.00;;;1.32;77.97
20015;BME280;61787;42.022;23.078;2023-02-16T01:26:50;98130.59;;;1.16;79.02
20015;BME280;61787;42.022;23.078;2023-02-16T01:27:51;98141.00;;;1.06;79.70
20015;BME280;61787;42.022;23.078;2023-02-16T01:28:53;98130.78;;;0.98;80.08
20015;BME280;61787;42.022;23.078;2023-02-16T01:29:54;98138.56;;;1.05;79.52
20015;BME280;61787;42.022;23.078;2023-02-16T01:30:56;98127.06;;;1.11;79.75
20015;BME280;61787;42.022;23.078;2023-02-16T01:31:58;98125.44;;;1.10;79.91
20015;BME280;61787;42.022;23.078;2023-02-16T01:32:59;98129.31;;;1.02;81.28
20015;BME280;61787;42.022;23.078;2023-02-16T01:34:01;98126.09;;;1.00;89.12
20015;BME280;61787;42.022;23.078;2023-02-16T01:35:03;98117.44;;;0.88;87.82
20015;BME280;61787;42.022;23.078;2023-02-16T01:36:06;98123.69;;;0.82;86.81
20015;BME280;61787;42.022;23.078;2023-02-16T01:37:17;98125.66;;;0.75;85.76
20015;BME280;61787;42.022;23.078;2023-02-16T01:38:22;98125.44;;;0.76;84.98
20015;BME280;61787;42.022;23.078;2023-02-16T01:39:24;98131.50;;;0.77;83.85
20015;BME280;61787;42.022;23.078;2023-02-16T01:43:28;98124.09;;;0.62;83.00
20015;BME280;61787;42.022;23.078;2023-02-16T01:44:40;98125.72;;;0.63;82.49
20015;BME280;61787;42.022;23.078;2023-02-16T01:45:46;98120.75;;;0.67;82.81
20015;BME280;61787;42.022;23.078;2023-02-16T01:48:03;98126.38;;;0.70;82.77
20015;BME280;61787;42.022;23.078;2023-02-16T01:49:14;98126.13;;;0.72;82.06
20015;BME280;61787;42.022;23.078;2023-02-16T01:50:24;98125.09;;;0.73;82.61
20015;BME280;61787;42.022;23.078;2023-02-16T01:51:29;98118.53;;;0.75;82.55
20015;BME280;61787;42.022;23.078;2023-02-16T01:52:36;98131.03;;;0.80;82.67
20015;BME280;61787;42.022;23.078;2023-02-16T01:53:45;98125.25;;;0.83;81.83
20015;BME280;61787;42.022;23.078;2023-02-16T01:55:01;98125.59;;;0.87;82.29
20015;BME280;61787;42.022;23.078;2023-02-16T01:56:16;98123.50;;;0.89;81.97
20015;BME280;61787;42.022;23.078;2023-02-16T01:57:40;98123.19;;;0.85;82.34
20015;BME280;61787;42.022;23.078;2023-02-16T01:58:46;98125.25;;;0.83;82.51
20015;BME280;61787;42.022;23.078;2023-02-16T02:01:59;98116.31;;;0.84;82.18
20015;BME280;61787;42.022;23.078;2023-02-16T02:03:02;98125.59;;;0.87;81.80
20015;BME280;61787;42.022;23.078;2023-02-16T02:06:13;98123.06;;;0.92;81.17
20015;BME280;61787;42.022;23.078;2023-02-16T02:07:46;98121.31;;;0.97;80.72
20015;BME280;61787;42.022;23.078;2023-02-16T02:10:10;98120.31;;;1.03;79.92
20015;BME280;61787;42.022;23.078;2023-02-16T02:11:22;98119.84;;;1.06;79.69
20015;BME280;61787;42.022;23.078;2023-02-16T02:13:54;98113.28;;;1.09;79.47
20015;BME280;61787;42.022;23.078;2023-02-16T02:14:59;98114.09;;;1.09;79.54
20015;BME280;61787;42.022;23.078;2023-02-16T02:16:03;98119.38;;;1.09;79.56
20015;BME280;61787;42.022;23.078;2023-02-16T02:17:17;98114.09;;;1.09;78.90
20015;BME280;61787;42.022;23.078;2023-02-16T02:18:20;98115.69;;;1.10;79.41
20015;BME280;61787;42.022;23.078;2023-02-16T02:19:22;98120.41;;;1.08;79.32
20015;BME280;61787;42.022;23.078;2023-02-16T02:20:48;98119.28;;;1.04;79.22
20015;BME280;61787;42.022;23.078;2023-02-16T02:27:49;98111.19;;;0.94;79.69
20015;BME280;61787;42.022;23.078;2023-02-16T02:30:30;98102.66;;;0.87;79.86
20015;BME280;61787;42.022;23.078;2023-02-16T02:33:14;98107.63;;;0.72;80.15
20015;BME280;61787;42.022;23.078;2023-02-16T02:35:52;98108.44;;;0.56;80.99
20015;BME280;61787;42.022;23.078;2023-02-16T02:38:32;98113.16;;;0.42;81.88
20015;BME280;61787;42.022;23.078;2023-02-16T02:39:57;98111.47;;;0.36;82.60
20015;BME280;61787;42.022;23.078;2023-02-16T02:43:03;98114.66;;;0.50;82.79
20015;BME280;61787;42.022;23.078;2023-02-16T02:44:07;98111.16;;;0.61;81.84
20015;BME280;61787;42.022;23.078;2023-02-16T02:45:15;98111.78;;;0.68;81.35
20015;BME280;61787;42.022;23.078;2023-02-16T02:46:33;98110.84;;;0.74;79.62
20015;BME280;61787;42.022;23.078;2023-02-16T02:47:45;98108.28;;;0.79;79.38
20015;BME280;61787;42.022;23.078;2023-02-16T02:48:46;98108.06;;;0.80;79.19
20015;BME280;61787;42.022;23.078;2023-02-16T02:49:49;98101.75;;;0.81;78.76
20015;BME280;61787;42.022;23.078;2023-02-16T02:50:52;98114.69;;;0.83;79.05
20015;BME280;61787;42.022;23.078;2023-02-16T02:52:31;98103.59;;;0.81;78.68
20015;BME280;61787;42.022;23.078;2023-02-16T02:53:39;98103.81;;;0.79;78.90
20015;BME280;61787;42.022;23.078;2023-02-16T02:54:42;98107.50;;;0.78;78.35
20015;BME280;61787;42.022;23.078;2023-02-16T02:56:05;98102.00;;;0.80;78.39
20015;BME280;61787;42.022;23.078;2023-02-16T02:58:56;98107.50;;;0.78;78.11
20015;BME280;61787;42.022;23.078;2023-02-16T03:00:22;98112.78;;;0.78;77.89
20015;BME280;61787;42.022;23.078;2023-02-16T03:01:49;98113.56;;;0.79;77.64
20015;BME280;61787;42.022;23.078;2023-02-16T03:02:57;98103.81;;;0.79;76.94
20015;BME280;61787;42.022;23.078;2023-02-16T03:04:01;98113.03;;;0.77;76.85
20015;BME280;61787;42.022;23.078;2023-02-16T03:05:06;98109.25;;;0.73;77.02
20015;BME280;61787;42.022;23.078;2023-02-16T03:07:18;98115.94;;;0.64;76.70
20015;BME280;61787;42.022;23.078;2023-02-16T03:08:26;98110.66;;;0.64;77.20
20015;BME280;61787;42.022;23.078;2023-02-16T03:09:28;98108.16;;;0.57;77.33
20015;BME280;61787;42.022;23.078;2023-02-16T03:10:30;98107.84;;;0.54;77.71
20015;BME280;61787;42.022;23.078;2023-02-16T03:11:52;98113.25;;;0.47;77.80
20015;BME280;61787;42.022;23.078;2023-02-16T03:13:23;98111.81;;;0.39;78.93
20015;BME280;61787;42.022;23.078;2023-02-16T03:14:31;98110.78;;;0.40;78.65
20015;BME280;61787;42.022;23.078;2023-02-16T03:15:35;98113.16;;;0.42;78.81
20015;BME280;61787;42.022;23.078;2023-02-16T03:16:41;98116.06;;;0.40;79.20
20015;BME280;61787;42.022;23.078;2023-02-16T03:17:45;98109.97;;;0.40;78.96
20015;BME280;61787;42.022;23.078;2023-02-16T03:19:07;98111.81;;;0.39;79.12
20015;BME280;61787;42.022;23.078;2023-02-16T03:20:28;98113.78;;;0.32;79.41
20015;BME280;61787;42.022;23.078;2023-02-16T03:21:49;98115.19;;;0.23;79.09
20015;BME280;61787;42.022;23.078;2023-02-16T03:23:10;98116.69;;;0.19;79.99
20015;BME280;61787;42.022;23.078;2023-02-16T03:24:31;98108.44;;;0.16;79.76
20015;BME280;61787;42.022;23.078;2023-02-16T03:25:52;98113.25;;;0.19;79.86
20015;BME280;61787;42.022;23.078;2023-02-16T03:27:15;98109.25;;;0.16;79.70
20015;BME280;61787;42.022;23.078;2023-02-16T03:28:40;98111.84;;;-0.01;80.12
20015;BME280;61787;42.022;23.078;2023-02-16T03:30:02;98109.34;;;-0.30;81.29
20015;BME280;61787;42.022;23.078;2023-02-16T03:31:07;98103.63;;;-0.51;82.67
20015;BME280;61787;42.022;23.078;2023-02-16T03:32:10;98108.56;;;-0.77;84.91
20015;BME280;61787;42.022;23.078;2023-02-16T03:33:12;98111.63;;;-0.92;85.97
20015;BME280;61787;42.022;23.078;2023-02-16T03:34:15;98114.13;;;-0.97;86.89
20015;BME280;61787;42.022;23.078;2023-02-16T03:35:18;98111.63;;;-0.92;86.93
20015;BME280;61787;42.022;23.078;2023-02-16T03:36:28;98111.88;;;-0.82;87.70
20015;BME280;61787;42.022;23.078;2023-02-16T03:37:31;98109.81;;;-0.80;86.85
20015;BME280;61787;42.022;23.078;2023-02-16T03:38:34;98112.56;;;-0.75;86.69
20015;BME280;61787;42.022;23.078;2023-02-16T03:39:36;98112.34;;;-0.62;85.76
20015;BME280;61787;42.022;23.078;2023-02-16T03:40:58;98114.63;;;-0.54;85.44
20015;BME280;61787;42.022;23.078;2023-02-16T03:42:00;98111.88;;;-0.59;84.15
20015;BME280;61787;42.022;23.078;2023-02-16T03:43:04;98110.28;;;-0.60;84.34
20015;BME280;61787;42.022;23.078;2023-02-16T03:44:06;98107.66;;;-0.60;84.56
20015;BME280;61787;42.022;23.078;2023-02-16T03:45:08;98116.69;;;-0.56;84.36
20015;BME280;61787;42.022;23.078;2023-02-16T03:46:10;98108.91;;;-0.51;84.40
20015;BME280;61787;42.022;23.078;2023-02-16T03:47:12;98107.97;;;-0.45;84.00
20015;BME280;61787;42.022;23.078;2023-02-16T03:48:13;98108.78;;;-0.32;84.25
20015;BME280;61787;42.022;23.078;2023-02-16T03:49:18;98112.88;;;-0.25;83.36
20015;BME280;61787;42.022;23.078;2023-02-16T03:50:21;98113.25;;;-0.21;82.71
20015;BME280;61787;42.022;23.078;2023-02-16T03:51:22;98110.13;;;-0.18;82.21
20015;BME280;61787;42.022;23.078;2023-02-16T03:52:24;98110.25;;;-0.13;81.70
20015;BME280;61787;42.022;23.078;2023-02-16T03:53:25;98111.38;;;-0.09;81.67
20015;BME280;61787;42.022;23.078;2023-02-16T03:54:27;98111.25;;;-0.03;81.18
20015;BME280;61787;42.022;23.078;2023-02-16T03:55:29;98115.03;;;0.02;81.25
20015;BME280;61787;42.022;23.078;2023-02-16T03:56:30;98116.94;;;0.06;80.49
20015;BME280;61787;42.022;23.078;2023-02-16T03:57:32;98118.34;;;0.09;80.06
20015;BME280;61787;42.022;23.078;2023-02-16T03:58:33;98117.06;;;0.11;79.99
20015;BME280;61787;42.022;23.078;2023-02-16T03:59:35;98120.28;;;0.13;80.52
20015;BME280;61787;42.022;23.078;2023-02-16T04:00:37;98110.19;;;0.10;80.85
20015;BME280;61787;42.022;23.078;2023-02-16T04:01:38;98118.00;;;0.05;81.42
20015;BME280;61787;42.022;23.078;2023-02-16T04:02:40;98114.78;;;0.03;81.24
20015;BME280;61787;42.022;23.078;2023-02-16T04:03:42;98116.53;;;-0.03;81.80
20015;BME280;61787;42.022;23.078;2023-02-16T04:04:43;98108.03;;;-0.05;81.89
20015;BME280;61787;42.022;23.078;2023-02-16T04:05:45;98115.72;;;-0.03;81.41
20015;BME280;61787;42.022;23.078;2023-02-16T04:06:46;98115.28;;;0.00;81.18
20015;BME280;61787;42.022;23.078;2023-02-16T04:07:48;98122.47;;;0.05;81.52
20015;BME280;61787;42.022;23.078;2023-02-16T04:08:50;98115.94;;;0.07;81.09
20015;BME280;61787;42.022;23.078;2023-02-16T04:09:51;98116.25;;;0.11;80.15
20015;BME280;61787;42.022;23.078;2023-02-16T04:10:53;98108.91;;;0.13;80.67
20015;BME280;61787;42.022;23.078;2023-02-16T04:11:57;98107.31;;;0.12;80.00
20015;BME280;61787;42.022;23.078;2023-02-16T04:13:17;98108.38;;;-0.01;81.03
20015;BME280;61787;42.022;23.078;2023-02-16T04:14:18;98107.91;;;0.02;80.98
20015;BME280;61787;42.022;23.078;2023-02-16T04:15:23;98114.00;;;0.03;80.94
20015;BME280;61787;42.022;23.078;2023-02-16T04:16:25;98113.75;;;0.04;81.44
20015;BME280;61787;42.022;23.078;2023-02-16T04:17:26;98110.09;;;0.05;81.53
20015;BME280;61787;42.022;23.078;2023-02-16T04:18:28;98109.84;;;0.07;80.90
20015;BME280;61787;42.022;23.078;2023-02-16T04:19:29;98106.50;;;0.11;80.43
20015;BME280;61787;42.022;23.078;2023-02-16T04:20:32;98106.59;;;0.16;80.28
20015;BME280;61787;42.022;23.078;2023-02-16T04:21:34;98109.25;;;0.16;79.54
20015;BME280;61787;42.022;23.078;2023-02-16T04:22:36;98106.50;;;0.11;79.70
20015;BME280;61787;42.022;23.078;2023-02-16T04:23:38;98102.19;;;0.05;79.96
20015;BME280;61787;42.022;23.078;2023-02-16T04:24:39;98114.31;;;0.06;80.76
20015;BME280;61787;42.022;23.078;2023-02-16T04:25:41;98106.31;;;0.01;80.86
20015;BME280;61787;42.022;23.078;2023-02-16T04:26:43;98107.91;;;0.02;80.58
20015;BME280;61787;42.022;23.078;2023-02-16T04:27:48;98102.44;;;-0.08;81.17
20015;BME280;61787;42.022;23.078;2023-02-16T04:28:50;98098.88;;;-0.14;81.34
20015;BME280;61787;42.022;23.078;2023-02-16T04:29:52;98101.75;;;-0.15;81.35
20015;BME280;61787;42.022;23.078;2023-02-16T04:30:54;98101.44;;;-0.30;82.96
20015;BME280;61787;42.022;23.078;2023-02-16T04:31:56;98097.22;;;-0.55;84.50
20015;BME280;61787;42.022;23.078;2023-02-16T04:33:00;98092.97;;;-0.91;86.67
20015;BME280;61787;42.022;23.078;2023-02-16T04:34:02;98093.19;;;-1.15;88.27
20015;BME280;61787;42.022;23.078;2023-02-16T04:35:04;98100.34;;;-1.22;89.61
20015;BME280;61787;42.022;23.078;2023-02-16T04:36:07;98096.03;;;-1.28;90.48
20015;BME280;61787;42.022;23.078;2023-02-16T04:37:08;98095.31;;;-1.36;91.00
20015;BME280;61787;42.022;23.078;2023-02-16T04:38:10;98097.97;;;-1.24;91.14
20015;BME280;61787;42.022;23.078;2023-02-16T04:39:12;98103.81;;;-1.10;90.58
20015;BME280;61787;42.022;23.078;2023-02-16T04:40:15;98098.81;;;-1.00;90.41
20015;BME280;61787;42.022;23.078;2023-02-16T04:41:17;98101.09;;;-0.92;89.71
20015;BME280;61787;42.022;23.078;2023-02-16T04:42:18;98098.13;;;-0.84;88.33
20015;BME280;61787;42.022;23.078;2023-02-16T04:43:20;98100.41;;;-0.76;88.05
20015;BME280;61787;42.022;23.078;2023-02-16T04:44:22;98099.06;;;-0.67;86.77
20015;BME280;61787;42.022;23.078;2023-02-16T04:45:23;98100.78;;;-0.61;85.75
20015;BME280;61787;42.022;23.078;2023-02-16T04:46:25;98098.03;;;-0.54;85.63
20015;BME280;61787;42.022;23.078;2023-02-16T04:47:27;98103.19;;;-0.48;84.98
20015;BME280;61787;42.022;23.078;2023-02-16T04:48:29;98109.13;;;-0.40;83.49
20015;BME280;61787;42.022;23.078;2023-02-16T04:49:30;98106.59;;;-0.35;83.29
20015;BME280;61787;42.022;23.078;2023-02-16T04:50:32;98105.00;;;-0.36;82.84
20015;BME280;61787;42.022;23.078;2023-02-16T04:51:33;98115.44;;;-0.41;81.14
20015;BME280;61787;42.022;23.078;2023-02-16T04:52:35;98110.72;;;-0.39;80.48
20015;BME280;61787;42.022;23.078;2023-02-16T04:53:37;98109.69;;;-0.38;78.95
20015;BME280;61787;42.022;23.078;2023-02-16T04:54:39;98121.75;;;-0.43;78.43
20015;BME280;61787;42.022;23.078;2023-02-16T04:55:47;98115.78;;;-0.50;78.53
20015;BME280;61787;42.022;23.078;2023-02-16T04:56:49;98119.56;;;-0.57;79.61
20015;BME280;61787;42.022;23.078;2023-02-16T04:57:51;98114.41;;;-0.64;79.54
20015;BME280;61787;42.022;23.078;2023-02-16T04:58:53;98109.59;;;-0.78;79.46
20015;BME280;61787;42.022;23.078;2023-02-16T04:59:55;98114.38;;;-0.87;80.97
20015;BME280;61787;42.022;23.078;2023-02-16T05:00:57;98111.88;;;-0.94;81.86
20015;BME280;61787;42.022;23.078;2023-02-16T05:01:58;98107.16;;;-0.92;82.25
20015;BME280;61787;42.022;23.078;2023-02-16T05:03:00;98109.56;;;-0.90;82.42
20015;BME280;61787;42.022;23.078;2023-02-16T05:04:02;98115.19;;;-0.87;83.12
20015;BME280;61787;42.022;23.078;2023-02-16T05:05:04;98109.91;;;-0.87;83.25
20015;BME280;61787;42.022;23.078;2023-02-16T05:06:05;98111.31;;;-0.84;83.26
20015;BME280;61787;42.022;23.078;2023-02-16T05:07:07;98119.19;;;-0.84;83.14
20015;BME280;61787;42.022;23.078;2023-02-16T05:08:08;98114.50;;;-0.82;82.50
20015;BME280;61787;42.022;23.078;2023-02-16T05:09:10;98122.63;;;-0.95;83.71
20015;BME280;61787;42.022;23.078;2023-02-16T05:10:12;98120.66;;;-1.00;84.93
20015;BME280;61787;42.022;23.078;2023-02-16T05:11:13;98126.03;;;-1.06;85.16
20015;BME280;61787;42.022;23.078;2023-02-16T05:12:34;98119.06;;;-1.01;85.13
20015;BME280;61787;42.022;23.078;2023-02-16T05:13:56;98120.31;;;-1.03;85.65
20015;BME280;61787;42.022;23.078;2023-02-16T05:15:16;98122.13;;;-1.15;86.20
20015;BME280;61787;42.022;23.078;2023-02-16T05:16:19;98121.31;;;-1.16;86.09
20015;BME280;61787;42.022;23.078;2023-02-16T05:17:23;98129.69;;;-1.07;86.26
20015;BME280;61787;42.022;23.078;2023-02-16T05:18:25;98132.00;;;-0.99;85.93
20015;BME280;61787;42.022;23.078;2023-02-16T05:19:27;98131.44;;;-0.90;85.47
20015;BME280;61787;42.022;23.078;2023-02-16T05:20:28;98123.91;;;-0.74;89.09
20015;BME280;61787;42.022;23.078;2023-02-16T05:21:49;98128.16;;;-0.62;88.15
20015;BME280;61787;42.022;23.078;2023-02-16T05:22:50;98129.84;;;-0.56;87.11
20015;BME280;61787;42.022;23.078;2023-02-16T05:23:52;98132.38;;;-0.49;86.56
20015;BME280;61787;42.022;23.078;2023-02-16T05:24:53;98131.69;;;-0.45;84.87
20015;BME280;61787;42.022;23.078;2023-02-16T05:25:55;98135.47;;;-0.40;84.30
20015;BME280;61787;42.022;23.078;2023-02-16T05:26:57;98134.66;;;-0.41;83.79
20015;BME280;61787;42.022;23.078;2023-02-16T05:27:58;98130.19;;;-0.40;82.68
20015;BME280;61787;42.022;23.078;2023-02-16T05:29:00;98129.16;;;-0.39;81.96
20015;BME280;61787;42.022;23.078;2023-02-16T05:30:02;98123.47;;;-0.36;82.35
20015;BME280;61787;42.022;23.078;2023-02-16T05:31:04;98128.03;;;-0.32;81.26
20015;BME280;61787;42.022;23.078;2023-02-16T05:32:07;98130.09;;;-0.34;81.16
20015;BME280;61787;42.022;23.078;2023-02-16T05:33:08;98133.41;;;-0.38;80.21
20015;BME280;61787;42.022;23.078;2023-02-16T05:34:10;98132.50;;;-0.32;80.00
20015;BME280;61787;42.022;23.078;2023-02-16T05:35:12;98136.06;;;-0.27;79.86
20015;BME280;61787;42.022;23.078;2023-02-16T05:36:14;98129.06;;;-0.21;79.51
20015;BME280;61787;42.022;23.078;2023-02-16T05:37:16;98127.78;;;-0.19;79.17
20015;BME280;61787;42.022;23.078;2023-02-16T05:38:18;98128.09;;;-0.15;80.42
20015;BME280;61787;42.022;23.078;2023-02-16T05:39:20;98124.81;;;-0.11;80.19
20015;BME280;61787;42.022;23.078;2023-02-16T05:40:22;98133.03;;;-0.07;79.86
20015;BME280;61787;42.022;23.078;2023-02-16T05:41:24;98133.16;;;-0.02;79.66
20015;BME280;61787;42.022;23.078;2023-02-16T05:42:25;98132.66;;;0.01;79.65
20015;BME280;61787;42.022;23.078;2023-02-16T05:43:27;98136.69;;;0.04;79.66
20015;BME280;61787;42.022;23.078;2023-02-16T05:44:29;98140.69;;;0.06;79.63
20015;BME280;61787;42.022;23.078;2023-02-16T05:45:30;98136.22;;;0.07;79.11
20015;BME280;61787;42.022;23.078;2023-02-16T05:46:35;98142.88;;;0.09;79.38
20015;BME280;61787;42.022;23.078;2023-02-16T05:47:37;98138.16;;;0.11;79.09
20015;BME280;61787;42.022;23.078;2023-02-16T05:48:38;98141.38;;;0.13;78.92
20015;BME280;61787;42.022;23.078;2023-02-16T05:49:40;98140.34;;;0.14;78.09
20015;BME280;61787;42.022;23.078;2023-02-16T05:50:42;98144.34;;;0.17;78.34
20015;BME280;61787;42.022;23.078;2023-02-16T05:51:44;98142.50;;;0.17;78.50
20015;BME280;61787;42.022;23.078;2023-02-16T05:52:45;98143.53;;;0.16;78.18
20015;BME280;61787;42.022;23.078;2023-02-16T05:53:47;98146.53;;;0.20;77.88
20015;BME280;61787;42.022;23.078;2023-02-16T05:54:48;98148.47;;;0.24;77.77
20015;BME280;61787;42.022;23.078;2023-02-16T05:55:50;98143.03;;;0.31;76.48
20015;BME280;61787;42.022;23.078;2023-02-16T05:56:52;98146.56;;;0.36;75.00
20015;BME280;61787;42.022;23.078;2023-02-16T05:57:53;98143.94;;;0.36;74.86
20015;BME280;61787;42.022;23.078;2023-02-16T05:58:57;98154.97;;;0.33;74.32
20015;BME280;61787;42.022;23.078;2023-02-16T05:59:59;98151.19;;;0.29;73.97
20015;BME280;61787;42.022;23.078;2023-02-16T06:01:00;98149.97;;;0.20;74.48
20015;BME280;61787;42.022;23.078;2023-02-16T06:02:02;98147.66;;;0.12;75.08
20015;BME280;61787;42.022;23.078;2023-02-16T06:03:04;98149.56;;;0.00;75.30
20015;BME280;61787;42.022;23.078;2023-02-16T06:04:07;98151.84;;;-0.15;76.36
20015;BME280;61787;42.022;23.078;2023-02-16T06:05:09;98153.47;;;-0.26;76.55
20015;BME280;61787;42.022;23.078;2023-02-16T06:06:11;98154.13;;;-0.30;77.19
20015;BME280;61787;42.022;23.078;2023-02-16T06:07:12;98149.69;;;-0.41;78.29
20015;BME280;61787;42.022;23.078;2023-02-16T06:08:15;98148.66;;;-0.52;79.45
20015;BME280;61787;42.022;23.078;2023-02-16T06:09:17;98148.28;;;-0.56;79.69
20015;BME280;61787;42.022;23.078;2023-02-16T06:10:18;98151.97;;;-0.57;80.60
20015;BME280;61787;42.022;23.078;2023-02-16T06:11:20;98152.53;;;-0.55;80.23
20015;BME280;61787;42.022;23.078;2023-02-16T06:12:37;98145.22;;;-0.53;81.06